To NAV CANADA Home Page Login to a new session Search on AWWS site Feedback and Comments Disclaimer Vers la page française équivalente Tips FAQ What's new on the site To the Forecasts and Observations / NOTAM section To "File a Flight Plan" website Publications and other links Update of the User's profile FIC Telephone Numbers My Weather Data Folder Route Weather Data Regional Weather Data Local Weather Data To the Forecasts and Observations / NOTAM section
Request Generated 04/23/2014 at 14:53:34 UTC . Weather information available at that time is displayed.

METAR/TAF

ST. JOHN'S/ST. JOHN'S INTL/NL    

METAR CYYT 231400Z 10011KT 1/8SM R11/2000FT/N R16/1200V1800FT/N FZFG
VV001 M00/M00 A2987 RMK FG8 SLP122=
METAR CYYT 231300Z 12015KT 1/8SM R11/1100V2400FT/N R16/0700V1100FT/N
FZFG VV001 M01/M01 A2988 RMK FG8 SLP126=
METAR CYYT 231200Z 10012KT 1/8SM R11/1100FT/N R16/0800V1200FT/N FZFG
VV001 M01/M01 A2990 RMK FG8 SLP131=

TAF AMD CYYT 231405Z 2314/2412 12015KT 1/8SM FZFG VV001 TEMPO
2314/2316 3/4SM BR OVC002 PROB30 2314/2316 3/4SM -FZDZ BR
FM231600 10015G25KT 3SM BR OVC003 TEMPO 2316/2321 1SM BR PROB30
2318/2321 3/4SM -FZDZ BR VV002
FM232100 07018G28KT 3/4SM -RA BR OVC003 PROB40 2321/2401 2SM
-FZRA BR OVC006
FM240100 07020G30KT 2SM -FZRA BR OVC006
FM240900 06025G35KT 1SM -RA BR OVC004
RMK NXT FCST BY 231800Z=
Your time UTC time
Weather data provided by Environment Canada and NAV CANADA